createdAt,value
2019-01-21T00:01:39.497Z,25.27
2019-01-21T00:04:08.969Z,30.20
2019-01-21T00:06:38.410Z,27.53
2019-01-21T00:09:09.105Z,28.03
2019-01-21T00:11:38.484Z,23.57
2019-01-21T00:14:08.011Z,28.33
2019-01-21T00:16:37.522Z,28.00
2019-01-21T00:19:06.984Z,25.87
2019-01-21T00:21:36.500Z,28.67
2019-01-21T00:24:06.038Z,27.80
2019-01-21T00:26:35.381Z,30.77
2019-01-21T00:29:04.759Z,26.27
2019-01-21T00:31:34.103Z,28.17
2019-01-21T00:34:03.467Z,27.07
2019-01-21T00:36:32.815Z,30.00
2019-01-21T00:39:02.213Z,25.87
2019-01-21T00:41:31.634Z,25.83
2019-01-21T00:44:01.039Z,34.87
2019-01-21T00:46:30.416Z,30.67
2019-01-21T00:48:59.781Z,30.50
2019-01-21T00:51:29.190Z,28.67
2019-01-21T00:53:58.592Z,34.37
2019-01-21T00:56:27.989Z,30.73
2019-01-21T00:58:57.324Z,30.33
2019-01-21T01:01:26.800Z,28.63
2019-01-21T01:03:56.230Z,29.13
2019-01-21T01:06:25.603Z,28.33
2019-01-21T01:08:54.962Z,31.67
2019-01-21T01:11:24.344Z,36.30
2019-01-21T01:13:53.708Z,25.23
2019-01-21T01:16:23.105Z,29.73
2019-01-21T01:18:52.508Z,26.20
2019-01-21T01:21:21.884Z,29.33
2019-01-21T01:23:51.254Z,27.93
2019-01-21T01:26:20.633Z,31.33
2019-01-21T01:28:50.031Z,27.70
2019-01-21T01:31:19.476Z,28.40
2019-01-21T01:33:48.904Z,28.93
2019-01-21T01:36:18.316Z,30.80
2019-01-21T01:38:47.655Z,30.27
2019-01-21T01:41:17.167Z,32.37
2019-01-21T01:43:46.727Z,34.37
2019-01-21T01:46:16.232Z,28.27
2019-01-21T01:48:46.608Z,27.43
2019-01-21T01:51:16.909Z,30.77
2019-01-21T01:53:46.538Z,29.23
2019-01-21T01:56:16.020Z,26.50
2019-01-21T01:58:45.535Z,29.83
2019-01-21T02:01:14.972Z,29.13
2019-01-21T02:03:44.785Z,28.00
2019-01-21T02:06:14.217Z,26.60
2019-01-21T02:08:43.579Z,28.10
2019-01-21T02:11:13.017Z,28.37
2019-01-21T02:13:42.451Z,26.87
2019-01-21T02:16:12.067Z,30.57
2019-01-21T02:18:41.556Z,35.30
2019-01-21T02:21:10.974Z,30.53
2019-01-21T02:23:40.659Z,34.17
2019-01-21T02:26:19.518Z,31.30
2019-01-21T02:29:03.475Z,31.13
2019-01-21T02:32:25.767Z,27.70
2019-01-21T02:35:32.296Z,25.87
2019-01-21T02:38:26.542Z,30.30
2019-01-21T02:41:39.887Z,31.00
2019-01-21T02:44:44.434Z,27.53
2019-01-21T02:47:28.826Z,32.53
2019-01-21T02:50:13.273Z,34.07
2019-01-21T02:53:12.962Z,28.93
2019-01-21T02:56:27.907Z,27.53
2019-01-21T02:59:50.059Z,27.83
2019-01-21T03:03:15.301Z,26.23
2019-01-21T03:06:35.206Z,28.50
2019-01-21T03:09:29.913Z,27.13
2019-01-21T03:12:36.173Z,30.23
2019-01-21T03:15:28.152Z,30.73
2019-01-21T03:18:32.857Z,31.87
2019-01-21T03:21:51.159Z,29.00
2019-01-21T03:25:28.579Z,29.17
2019-01-21T03:28:42.279Z,29.50
2019-01-21T03:32:03.162Z,35.37
2019-01-21T03:35:16.588Z,28.03
2019-01-21T03:38:25.673Z,30.20
2019-01-21T03:41:26.002Z,40.20
2019-01-21T03:44:42.498Z,27.07
2019-01-21T03:47:30.034Z,30.87
2019-01-21T03:50:48.715Z,22.87
2019-01-21T03:53:39.891Z,24.00
2019-01-21T03:56:19.801Z,23.87
2019-01-21T03:59:26.930Z,27.13
2019-01-21T04:02:21.742Z,26.93
2019-01-21T04:05:22.581Z,28.03
2019-01-21T04:08:15.875Z,31.70
2019-01-21T04:11:18.309Z,22.23
2019-01-21T04:14:13.980Z,20.97
2019-01-21T04:16:55.851Z,24.93
2019-01-21T04:19:53.144Z,25.17
2019-01-21T04:23:24.762Z,27.77
2019-01-21T04:26:53.181Z,26.43
2019-01-21T04:29:55.850Z,22.90
2019-01-21T04:32:35.654Z,26.77
2019-01-21T04:35:43.021Z,27.40
2019-01-21T04:38:49.732Z,23.30
2019-01-21T04:41:45.233Z,25.77
2019-01-21T04:45:05.296Z,27.60
2019-01-21T04:48:16.606Z,28.60
2019-01-21T04:51:09.499Z,25.27
2019-01-21T04:54:35.028Z,26.80
2019-01-21T04:57:39.674Z,26.70
2019-01-21T05:00:20.602Z,29.30
2019-01-21T05:03:36.364Z,31.57
2019-01-21T05:06:44.786Z,30.53
2019-01-21T05:09:44.174Z,24.07
2019-01-21T05:12:39.360Z,25.37
2019-01-21T05:15:42.681Z,21.30
2019-01-21T05:19:02.191Z,24.67
2019-01-21T05:22:14.778Z,25.93
2019-01-21T05:25:26.209Z,26.47
2019-01-21T05:28:48.493Z,26.20
2019-01-21T05:31:50.125Z,20.67
2019-01-21T05:35:10.526Z,30.10
2019-01-21T05:38:24.236Z,23.33
2019-01-21T05:41:18.217Z,27.17
2019-01-21T05:44:13.510Z,21.73
2019-01-21T05:47:22.819Z,22.20
2019-01-21T05:50:34.776Z,24.37
2019-01-21T05:53:48.279Z,26.70
2019-01-21T05:56:44.483Z,27.70
2019-01-21T06:00:04.085Z,21.70
2019-01-21T06:03:11.929Z,32.60
2019-01-21T06:06:08.098Z,31.63
2019-01-21T06:09:14.058Z,32.17
2019-01-21T06:12:12.193Z,33.33
2019-01-21T06:15:34.456Z,25.93
2019-01-21T06:18:57.382Z,28.13
2019-01-21T06:21:59.186Z,31.33
2019-01-21T06:25:04.005Z,28.40
2019-01-21T06:28:23.162Z,24.20
2019-01-21T06:31:38.054Z,24.57
2019-01-21T06:34:41.123Z,26.43
2019-01-21T06:37:54.231Z,21.77
2019-01-21T06:40:56.327Z,32.60
2019-01-21T06:44:01.003Z,25.77
2019-01-21T06:47:22.235Z,26.10
2019-01-21T06:50:30.207Z,27.27
2019-01-21T06:53:36.476Z,24.87
2019-01-21T06:56:54.881Z,23.70
2019-01-21T07:00:11.181Z,25.90
2019-01-21T07:03:13.766Z,23.07
2019-01-21T07:06:08.566Z,21.83
2019-01-21T07:09:23.616Z,26.67
2019-01-21T07:12:29.078Z,22.90
2019-01-21T07:15:33.384Z,25.83
2019-01-21T07:18:27.762Z,26.33
2019-01-21T07:21:22.053Z,22.40
2019-01-21T07:24:50.235Z,26.43
2019-01-21T07:27:58.776Z,20.73
2019-01-21T07:31:11.913Z,21.70
2019-01-21T07:33:59.383Z,24.27
2019-01-21T07:37:34.530Z,19.63
2019-01-21T07:40:43.514Z,24.13
2019-01-21T07:43:37.549Z,22.50
2019-01-21T07:46:58.487Z,21.13
2019-01-21T07:50:58.067Z,22.53
2019-01-21T07:54:07.350Z,19.77
2019-01-21T07:57:16.367Z,17.17
2019-01-21T08:00:26.863Z,15.73
2019-01-21T08:03:44.626Z,19.60
2019-01-21T08:07:13.085Z,15.60
2019-01-21T08:10:34.307Z,18.63
2019-01-21T08:13:52.480Z,18.63
2019-01-21T08:16:48.761Z,14.73
2019-01-21T08:19:26.679Z,18.87
2019-01-21T08:22:40.211Z,16.67
2019-01-21T08:25:52.828Z,16.30
2019-01-21T08:28:39.526Z,15.73
2019-01-21T08:31:23.728Z,19.13
2019-01-21T08:34:46.986Z,16.13
2019-01-21T08:37:39.513Z,17.47
2019-01-21T08:41:11.176Z,27.40
2019-01-21T08:44:13.331Z,17.70
2019-01-21T08:46:56.085Z,23.07
2019-01-21T08:50:12.667Z,20.80
2019-01-21T08:53:16.134Z,22.77
2019-01-21T08:56:21.798Z,16.07
2019-01-21T08:59:34.877Z,21.40
2019-01-21T09:02:54.474Z,21.30
2019-01-21T09:05:52.343Z,21.33
2019-01-21T09:09:00.114Z,19.23
2019-01-21T09:12:01.336Z,19.30
2019-01-21T09:15:07.244Z,19.90
2019-01-21T09:18:23.494Z,21.47
2019-01-21T09:21:29.491Z,20.00
2019-01-21T09:24:32.108Z,19.27
2019-01-21T09:27:31.671Z,18.87
2019-01-21T09:30:37.698Z,21.10
2019-01-21T09:33:49.720Z,25.50
2019-01-21T09:36:51.197Z,21.07
2019-01-21T09:40:04.655Z,23.07
2019-01-21T09:43:23.292Z,18.03
2019-01-21T09:46:02.587Z,21.67
2019-01-21T09:48:30.279Z,19.37
2019-01-21T09:51:04.651Z,19.20
2019-01-21T09:53:35.206Z,22.00
2019-01-21T09:56:04.958Z,23.33
2019-01-21T09:58:35.132Z,21.77
2019-01-21T10:01:04.717Z,21.43
2019-01-21T10:03:35.341Z,28.37
2019-01-21T10:06:09.410Z,20.63
2019-01-21T10:08:53.938Z,21.10
2019-01-21T10:12:08.224Z,21.43
2019-01-21T10:15:09.863Z,20.40
2019-01-21T10:18:02.815Z,18.87
2019-01-21T10:21:07.576Z,21.80
2019-01-21T10:24:26.913Z,20.03
2019-01-21T10:27:40.429Z,20.50
2019-01-21T10:30:22.925Z,22.53
2019-01-21T10:33:43.691Z,24.10
2019-01-21T10:36:59.839Z,21.87
2019-01-21T10:40:31.117Z,26.37
2019-01-21T10:43:44.219Z,23.00
2019-01-21T10:46:43.137Z,24.40
2019-01-21T10:49:38.429Z,23.53
2019-01-21T10:52:36.565Z,30.23
2019-01-21T10:55:46.789Z,24.47
2019-01-21T10:58:51.071Z,26.70
2019-01-21T11:01:43.332Z,30.13
2019-01-21T11:04:31.044Z,38.40
2019-01-21T11:07:37.402Z,26.17
2019-01-21T11:10:51.091Z,25.73
2019-01-21T11:13:48.905Z,32.33
2019-01-21T11:16:35.008Z,30.83
2019-01-21T11:19:48.856Z,29.10
2019-01-21T11:22:28.009Z,22.43
2019-01-21T11:25:37.382Z,40.37
2019-01-21T11:28:36.331Z,29.87
2019-01-21T11:31:55.576Z,27.90
2019-01-21T11:35:05.238Z,34.50
2019-01-21T11:38:30.442Z,28.80
2019-01-21T11:41:30.873Z,26.90
2019-01-21T11:44:35.384Z,30.47
2019-01-21T11:47:43.510Z,34.20
2019-01-21T11:51:03.408Z,38.47
2019-01-21T11:54:28.780Z,33.63
2019-01-21T11:57:13.796Z,40.57
2019-01-21T11:59:56.951Z,33.40
2019-01-21T12:02:57.292Z,34.83
2019-01-21T12:06:19.611Z,30.57
2019-01-21T12:09:18.840Z,32.67
2019-01-21T12:12:04.810Z,31.93
2019-01-21T12:15:27.759Z,37.80
2019-01-21T12:18:22.622Z,30.83
2019-01-21T12:21:16.417Z,32.63
2019-01-21T12:24:26.988Z,30.30
2019-01-21T12:27:22.378Z,30.70
2019-01-21T12:30:20.623Z,30.43
2019-01-21T12:33:20.347Z,27.37
2019-01-21T12:36:11.868Z,30.10
2019-01-21T12:39:12.301Z,31.63
2019-01-21T12:42:21.124Z,29.67
2019-01-21T12:45:04.905Z,36.27
2019-01-21T12:48:10.780Z,33.60
2019-01-21T12:51:27.064Z,30.00
2019-01-21T12:54:35.189Z,38.40
2019-01-21T12:58:09.697Z,30.17
2019-01-21T13:01:26.057Z,30.80
2019-01-21T13:04:10.415Z,29.40
2019-01-21T13:07:02.033Z,35.33
2019-01-21T13:09:52.531Z,34.57
2019-01-21T13:13:04.584Z,28.80
2019-01-21T13:16:17.767Z,34.10
2019-01-21T13:19:52.306Z,34.37
2019-01-21T13:22:58.099Z,40.40
2019-01-21T13:26:03.418Z,33.23
2019-01-21T13:28:47.059Z,36.30
2019-01-21T13:32:04.485Z,30.97
2019-01-21T13:35:19.446Z,36.50
2019-01-21T13:38:31.484Z,38.30
2019-01-21T13:41:37.577Z,29.77
2019-01-21T13:44:51.256Z,34.03
2019-01-21T13:48:07.536Z,26.70
2019-01-21T13:51:29.576Z,35.47
2019-01-21T13:54:32.460Z,31.20
2019-01-21T13:57:45.381Z,33.07
2019-01-21T14:00:28.396Z,33.00
2019-01-21T14:03:34.328Z,35.33
2019-01-21T14:06:51.386Z,32.90
2019-01-21T14:09:48.773Z,31.47
2019-01-21T14:12:43.758Z,33.10
2019-01-21T14:15:58.595Z,32.83
2019-01-21T14:18:39.618Z,30.87
2019-01-21T14:21:39.886Z,36.20
2019-01-21T14:24:33.112Z,35.13
2019-01-21T14:27:46.183Z,33.47
2019-01-21T14:31:10.592Z,39.83
2019-01-21T14:34:16.213Z,31.60
2019-01-21T14:37:23.945Z,32.90
2019-01-21T14:40:26.724Z,34.97
2019-01-21T14:43:17.866Z,34.43
2019-01-21T14:46:02.432Z,33.67
2019-01-21T14:49:08.681Z,34.03
2019-01-21T14:52:11.648Z,34.93
2019-01-21T14:55:27.630Z,33.67
2019-01-21T14:58:19.940Z,33.23
2019-01-21T15:01:03.866Z,34.77
2019-01-21T15:04:32.095Z,38.60
2019-01-21T15:07:32.621Z,38.00
2019-01-21T15:10:46.851Z,31.00
2019-01-21T15:14:00.072Z,41.63
2019-01-21T15:17:19.207Z,36.57
2019-01-21T15:20:11.750Z,37.13
2019-01-21T15:23:27.826Z,34.80
2019-01-21T15:26:31.895Z,33.07
2019-01-21T15:29:26.093Z,36.10
2019-01-21T15:32:48.849Z,38.87
2019-01-21T15:35:38.388Z,38.27
2019-01-21T15:38:35.387Z,32.73
2019-01-21T15:41:55.277Z,32.47
2019-01-21T15:44:50.136Z,38.53
2019-01-21T15:47:41.603Z,36.27
2019-01-21T15:50:39.504Z,37.87
2019-01-21T15:53:30.855Z,35.37
2019-01-21T15:56:24.080Z,42.23
2019-01-21T15:59:36.324Z,35.83
2019-01-21T16:02:34.399Z,42.07
2019-01-21T16:05:39.720Z,39.43
2019-01-21T16:08:26.785Z,39.70
2019-01-21T16:11:19.570Z,36.87
2019-01-21T16:14:08.202Z,45.83
2019-01-21T16:17:10.583Z,38.20
2019-01-21T16:20:06.620Z,42.03
2019-01-21T16:23:15.036Z,44.67
2019-01-21T16:25:58.806Z,39.27
2019-01-21T16:29:11.214Z,37.30
2019-01-21T16:32:10.485Z,42.40
2019-01-21T16:35:22.808Z,45.17
2019-01-21T16:38:13.459Z,48.87
2019-01-21T16:41:38.022Z,48.00
2019-01-21T16:44:07.354Z,44.63
2019-01-21T16:46:36.752Z,41.80
2019-01-21T16:49:06.112Z,40.73
2019-01-21T16:51:35.490Z,42.40
2019-01-21T16:54:05.176Z,47.03
2019-01-21T16:56:34.498Z,36.27
2019-01-21T16:59:03.995Z,41.33
2019-01-21T17:01:33.351Z,47.20
2019-01-21T17:04:02.700Z,52.17
2019-01-21T17:06:32.185Z,46.97
2019-01-21T17:09:01.622Z,47.47
2019-01-21T17:11:30.983Z,43.50
2019-01-21T17:14:00.362Z,47.20
2019-01-21T17:16:29.749Z,55.70
2019-01-21T17:18:59.108Z,51.80
2019-01-21T17:21:28.562Z,47.00
2019-01-21T17:23:57.968Z,49.47
2019-01-21T17:26:28.431Z,60.43
2019-01-21T17:28:57.918Z,67.20
2019-01-21T17:31:27.377Z,67.77
2019-01-21T17:33:56.790Z,65.40
2019-01-21T17:36:26.162Z,56.77
2019-01-21T17:38:55.596Z,67.10
2019-01-21T17:41:25.034Z,84.13
2019-01-21T17:43:54.414Z,69.63
2019-01-21T17:46:23.785Z,63.10
2019-01-21T17:48:53.266Z,75.47
2019-01-21T17:51:22.606Z,72.77
2019-01-21T17:53:53.478Z,52.70
2019-01-21T17:56:22.949Z,52.97
2019-01-21T17:58:52.324Z,51.07
2019-01-21T18:01:21.712Z,46.73
2019-01-21T18:03:51.157Z,46.00
2019-01-21T18:06:20.526Z,53.00
2019-01-21T18:08:49.863Z,49.80
2019-01-21T18:11:19.321Z,42.53
2019-01-21T18:13:48.697Z,44.97
2019-01-21T18:16:18.096Z,42.20
2019-01-21T18:18:47.585Z,41.20
2019-01-21T18:21:16.916Z,44.03
2019-01-21T18:23:46.283Z,44.20
2019-01-21T18:26:15.667Z,48.57
2019-01-21T18:28:45.169Z,45.37
2019-01-21T18:31:14.557Z,44.43
2019-01-21T18:33:43.996Z,46.87
2019-01-21T18:36:13.372Z,46.20
2019-01-21T18:38:42.766Z,44.70
2019-01-21T18:41:12.206Z,51.83
2019-01-21T18:43:41.605Z,52.37
2019-01-21T18:46:10.922Z,51.50
2019-01-21T18:48:41.247Z,55.20
2019-01-21T18:51:10.641Z,57.17
2019-01-21T18:53:40.060Z,46.37
2019-01-21T18:56:09.466Z,49.50
2019-01-21T18:58:38.971Z,49.97
2019-01-21T19:01:08.399Z,57.95
2019-01-21T19:03:38.649Z,55.97
2019-01-21T19:06:08.034Z,52.60
2019-01-21T19:08:37.397Z,46.70
2019-01-21T19:11:06.858Z,49.70
2019-01-21T19:13:36.261Z,42.93
2019-01-21T19:16:05.708Z,49.37
2019-01-21T19:18:35.128Z,45.27
2019-01-21T19:21:04.553Z,44.53
2019-01-21T19:23:33.909Z,51.23
2019-01-21T19:26:03.553Z,52.50
2019-01-21T19:28:32.893Z,46.77
2019-01-21T19:31:02.319Z,56.80
2019-01-21T19:33:31.678Z,48.73
2019-01-21T19:36:03.113Z,51.53
2019-01-21T19:38:32.501Z,50.43
2019-01-21T19:41:01.953Z,44.13
2019-01-21T19:43:31.448Z,50.43
2019-01-21T19:46:00.840Z,52.43
2019-01-21T19:48:30.188Z,50.20
2019-01-21T19:50:59.634Z,53.57
2019-01-21T19:53:29.007Z,53.90
2019-01-21T19:55:58.462Z,63.87
2019-01-21T19:58:27.898Z,62.23
2019-01-21T20:00:57.408Z,59.40
2019-01-21T20:03:27.197Z,66.30
2019-01-21T20:05:56.677Z,58.47
2019-01-21T20:08:26.457Z,55.53
2019-01-21T20:10:56.281Z,61.27
2019-01-21T20:13:26.223Z,57.70
2019-01-21T20:15:55.760Z,57.83
2019-01-21T20:18:25.129Z,63.40
2019-01-21T20:20:54.505Z,56.27
2019-01-21T20:23:24.076Z,57.47
2019-01-21T20:25:53.613Z,57.90
2019-01-21T20:28:23.163Z,58.73
2019-01-21T20:30:52.581Z,56.83
2019-01-21T20:33:22.117Z,57.57
2019-01-21T20:35:51.501Z,48.93
2019-01-21T20:38:20.997Z,42.43
2019-01-21T20:40:50.425Z,45.30
2019-01-21T20:43:20.549Z,45.33
2019-01-21T20:45:50.174Z,44.57
2019-01-21T20:48:19.735Z,45.63
2019-01-21T20:50:49.226Z,46.80
2019-01-21T20:53:18.666Z,43.07
2019-01-21T20:55:48.087Z,41.30
2019-01-21T20:58:17.564Z,47.40
2019-01-21T21:00:46.942Z,42.77
2019-01-21T21:03:16.558Z,44.43
2019-01-21T21:05:45.917Z,39.23
2019-01-21T21:08:15.430Z,44.93
2019-01-21T21:10:44.783Z,51.10
2019-01-21T21:13:15.441Z,43.73
2019-01-21T21:15:45.973Z,46.37
2019-01-21T21:18:15.351Z,43.43
2019-01-21T21:20:45.857Z,42.37
2019-01-21T21:23:15.276Z,41.43
2019-01-21T21:25:44.721Z,50.27
2019-01-21T21:28:14.144Z,44.07
2019-01-21T21:30:43.567Z,46.93
2019-01-21T21:33:12.896Z,42.53
2019-01-21T21:35:42.436Z,40.40
2019-01-21T21:38:11.835Z,48.27
2019-01-21T21:40:41.301Z,41.27
2019-01-21T21:43:11.205Z,42.40
2019-01-21T21:45:40.613Z,41.43
2019-01-21T21:48:09.889Z,41.23
2019-01-21T21:50:39.442Z,45.17
2019-01-21T21:53:08.740Z,44.37
2019-01-21T21:55:38.108Z,49.53
2019-01-21T21:58:07.779Z,47.03
2019-01-21T22:00:37.751Z,41.97
2019-01-21T22:03:07.135Z,45.27
2019-01-21T22:05:36.535Z,43.80
2019-01-21T22:08:06.278Z,43.57
2019-01-21T22:10:36.035Z,50.63
2019-01-21T22:13:05.299Z,41.83
2019-01-21T22:15:34.765Z,52.93
2019-01-21T22:18:04.141Z,49.07
2019-01-21T22:20:33.687Z,43.13
2019-01-21T22:23:03.427Z,47.87
2019-01-21T22:25:32.963Z,43.97
2019-01-21T22:28:02.404Z,50.40
2019-01-21T22:30:31.832Z,47.90
2019-01-21T22:33:01.403Z,49.33
2019-01-21T22:35:32.307Z,46.00
2019-01-21T22:38:01.709Z,45.90
2019-01-21T22:40:31.081Z,40.07
2019-01-21T22:43:00.631Z,45.77
2019-01-21T22:45:30.017Z,47.40
2019-01-21T22:47:59.838Z,48.70
2019-01-21T22:50:29.234Z,49.67
2019-01-21T22:52:58.671Z,47.27
2019-01-21T22:55:28.136Z,42.57
2019-01-21T22:57:57.553Z,43.10
2019-01-21T23:00:40.466Z,46.33
2019-01-21T23:03:10.361Z,48.37
2019-01-21T23:05:39.818Z,44.67
2019-01-21T23:08:09.306Z,46.83
2019-01-21T23:10:38.988Z,45.17
2019-01-21T23:13:08.364Z,44.83
2019-01-21T23:15:37.913Z,45.57
2019-01-21T23:18:07.846Z,40.93
2019-01-21T23:20:37.280Z,45.80
2019-01-21T23:23:07.070Z,42.33
2019-01-21T23:25:36.430Z,47.80
2019-01-21T23:28:06.163Z,44.33
2019-01-21T23:30:35.565Z,48.17
2019-01-21T23:33:05.152Z,41.47
2019-01-21T23:35:34.916Z,39.60
2019-01-21T23:38:04.465Z,45.10
2019-01-21T23:40:33.867Z,47.57
2019-01-21T23:43:03.291Z,39.30
2019-01-21T23:45:32.717Z,43.00
2019-01-21T23:48:02.184Z,41.97
2019-01-21T23:50:31.609Z,44.90
2019-01-21T23:53:00.985Z,38.73
2019-01-21T23:55:30.357Z,41.30
2019-01-21T23:57:59.821Z,39.47
